createdAt,value
2023-05-02T00:00:11.539Z,584.00
2023-05-02T00:01:11.616Z,587.00
2023-05-02T00:02:11.765Z,577.00
2023-05-02T00:03:11.737Z,590.00
2023-05-02T00:04:11.847Z,584.00
2023-05-02T00:05:11.761Z,576.00
2023-05-02T00:06:11.809Z,568.00
2023-05-02T00:07:11.823Z,577.00
2023-05-02T00:08:11.868Z,578.00
2023-05-02T00:09:11.921Z,586.00
2023-05-02T00:10:11.959Z,577.00
2023-05-02T00:11:11.996Z,590.00
2023-05-02T00:12:12.034Z,588.00
2023-05-02T00:13:12.091Z,579.00
2023-05-02T00:14:12.154Z,571.00
2023-05-02T00:15:12.177Z,569.00
2023-05-02T00:16:12.211Z,570.00
2023-05-02T00:17:12.339Z,571.00
2023-05-02T00:18:12.322Z,571.00
2023-05-02T00:19:12.332Z,581.00
2023-05-02T00:20:12.378Z,576.00
2023-05-02T00:21:12.394Z,577.00
2023-05-02T00:22:12.421Z,595.00
2023-05-02T00:23:12.475Z,581.00
2023-05-02T00:24:12.524Z,587.00
2023-05-02T00:25:12.547Z,583.00
2023-05-02T00:26:12.615Z,594.00
2023-05-02T00:27:12.644Z,586.00
2023-05-02T00:28:12.672Z,586.00
2023-05-02T00:29:12.731Z,590.00
2023-05-02T00:30:12.777Z,589.00
2023-05-02T00:31:12.899Z,583.00
2023-05-02T00:32:12.845Z,585.00
2023-05-02T00:33:13.161Z,582.00
2023-05-02T00:34:12.938Z,586.00
2023-05-02T00:35:12.956Z,588.00
2023-05-02T00:36:12.988Z,584.00
2023-05-02T00:37:13.022Z,584.00
2023-05-02T00:38:13.055Z,585.00
2023-05-02T00:39:13.098Z,593.00
2023-05-02T00:40:13.192Z,584.00
2023-05-02T00:41:13.171Z,572.00
2023-05-02T00:42:13.218Z,584.00
2023-05-02T00:43:13.270Z,581.00
2023-05-02T00:44:13.295Z,594.00
2023-05-02T00:45:13.335Z,593.00
2023-05-02T00:46:13.460Z,588.00
2023-05-02T00:47:13.394Z,585.00
2023-05-02T00:48:13.511Z,580.00
2023-05-02T00:49:13.466Z,578.00
2023-05-02T00:50:13.495Z,597.00
2023-05-02T00:51:13.523Z,593.00
2023-05-02T00:52:13.577Z,591.00
2023-05-02T00:53:13.581Z,588.00
2023-05-02T00:54:13.635Z,594.00
2023-05-02T00:55:13.664Z,591.00
2023-05-02T00:56:13.725Z,597.00
2023-05-02T00:57:13.757Z,606.00
2023-05-02T00:58:13.781Z,606.00
2023-05-02T00:59:13.809Z,609.00
2023-05-02T01:00:13.846Z,606.00
2023-05-02T01:01:13.899Z,611.00
2023-05-02T01:02:13.954Z,614.00
2023-05-02T01:03:14.108Z,599.00
2023-05-02T01:04:14.078Z,602.00
2023-05-02T01:05:14.018Z,604.00
2023-05-02T01:06:14.070Z,592.00
2023-05-02T01:07:14.106Z,590.00
2023-05-02T01:08:14.119Z,596.00
2023-05-02T01:09:14.175Z,598.00
2023-05-02T01:10:14.207Z,598.00
2023-05-02T01:11:14.255Z,600.00
2023-05-02T01:12:14.250Z,595.00
2023-05-02T01:13:14.294Z,606.00
2023-05-02T01:14:14.316Z,601.00
2023-05-02T01:15:14.353Z,606.00
2023-05-02T01:16:14.485Z,605.00
2023-05-02T01:17:14.419Z,594.00
2023-05-02T01:18:14.513Z,605.00
2023-05-02T01:19:14.504Z,600.00
2023-05-02T01:20:14.532Z,602.00
2023-05-02T01:21:14.575Z,604.00
2023-05-02T01:22:14.618Z,595.00
2023-05-02T01:23:14.628Z,600.00
2023-05-02T01:24:14.660Z,589.00
2023-05-02T01:25:14.693Z,589.00
2023-05-02T01:26:14.721Z,591.00
2023-05-02T01:27:14.759Z,600.00
2023-05-02T01:28:14.779Z,590.00
2023-05-02T01:29:14.830Z,588.00
2023-05-02T01:30:14.832Z,590.00
2023-05-02T01:31:14.877Z,578.00
2023-05-02T01:32:14.911Z,585.00
2023-05-02T01:33:15.006Z,601.00
2023-05-02T01:34:14.991Z,587.00
2023-05-02T01:35:15.042Z,590.00
2023-05-02T01:36:15.066Z,597.00
2023-05-02T01:37:15.110Z,590.00
2023-05-02T01:38:15.144Z,607.00
2023-05-02T01:39:15.163Z,602.00
2023-05-02T01:40:15.215Z,593.00
2023-05-02T01:41:15.282Z,593.00
2023-05-02T01:42:15.292Z,597.00
2023-05-02T01:43:15.327Z,597.00
2023-05-02T01:44:15.367Z,595.00
2023-05-02T01:45:15.405Z,612.00
2023-05-02T01:46:15.469Z,592.00
2023-05-02T01:47:15.669Z,603.00
2023-05-02T01:48:15.530Z,610.00
2023-05-02T01:49:15.549Z,603.00
2023-05-02T01:50:15.594Z,608.00
2023-05-02T01:51:15.637Z,609.00
2023-05-02T01:52:15.657Z,614.00
2023-05-02T01:53:15.714Z,600.00
2023-05-02T01:54:15.725Z,610.00
2023-05-02T01:55:15.789Z,611.00
2023-05-02T01:56:15.811Z,613.00
2023-05-02T01:57:15.845Z,613.00
2023-05-02T01:58:15.891Z,608.00
2023-05-02T01:59:15.920Z,611.00
2023-05-02T02:00:15.966Z,606.00
2023-05-02T02:01:16.066Z,611.00
2023-05-02T02:02:16.050Z,617.00
2023-05-02T02:03:16.158Z,611.00
2023-05-02T02:04:16.164Z,612.00
2023-05-02T02:05:16.188Z,619.00
2023-05-02T02:06:16.264Z,614.00
2023-05-02T02:07:16.273Z,614.00
2023-05-02T02:08:16.315Z,612.00
2023-05-02T02:09:16.363Z,620.00
2023-05-02T02:10:16.404Z,619.00
2023-05-02T02:11:16.451Z,618.00
2023-05-02T02:12:16.496Z,606.00
2023-05-02T02:13:16.554Z,598.00
2023-05-02T02:14:16.571Z,604.00
2023-05-02T02:15:16.626Z,600.00
2023-05-02T02:16:16.702Z,598.00
2023-05-02T02:17:16.712Z,612.00
2023-05-02T02:18:16.747Z,598.00
2023-05-02T02:19:16.797Z,603.00
2023-05-02T02:20:16.825Z,607.00
2023-05-02T02:21:16.864Z,597.00
2023-05-02T02:22:16.893Z,604.00
2023-05-02T02:23:16.953Z,598.00
2023-05-02T02:24:16.981Z,601.00
2023-05-02T02:25:17.044Z,600.00
2023-05-02T02:26:17.078Z,606.00
2023-05-02T02:27:17.090Z,612.00
2023-05-02T02:28:17.133Z,605.00
2023-05-02T02:29:17.161Z,611.00
2023-05-02T02:30:17.209Z,596.00
2023-05-02T02:31:17.269Z,578.00
2023-05-02T02:32:17.275Z,595.00
2023-05-02T02:33:17.301Z,583.00
2023-05-02T02:34:17.371Z,579.00
2023-05-02T02:35:17.367Z,588.00
2023-05-02T02:36:17.399Z,587.00
2023-05-02T02:37:17.451Z,597.00
2023-05-02T02:38:17.476Z,585.00
2023-05-02T02:39:17.514Z,579.00
2023-05-02T02:40:17.552Z,577.00
2023-05-02T02:41:17.588Z,590.00
2023-05-02T02:42:17.629Z,600.00
2023-05-02T02:43:17.679Z,594.00
2023-05-02T02:44:17.711Z,577.00
2023-05-02T02:45:17.752Z,592.00
2023-05-02T02:46:17.792Z,586.00
2023-05-02T02:47:17.810Z,574.00
2023-05-02T02:48:17.898Z,581.00
2023-05-02T02:49:17.909Z,587.00
2023-05-02T02:50:17.939Z,585.00
2023-05-02T02:51:17.962Z,582.00
2023-05-02T02:52:18.033Z,571.00
2023-05-02T02:53:18.058Z,586.00
2023-05-02T02:54:26.469Z,593.00
2023-05-02T02:55:19.085Z,589.00
2023-05-02T02:56:18.068Z,588.00
2023-05-02T02:57:18.076Z,584.00
2023-05-02T02:58:18.057Z,590.00
2023-05-02T02:59:18.053Z,579.00
2023-05-02T03:00:18.028Z,572.00
2023-05-02T03:01:18.068Z,575.00
2023-05-02T03:02:18.019Z,565.00
2023-05-02T03:03:18.081Z,571.00
2023-05-02T03:04:18.166Z,571.00
2023-05-02T03:05:18.012Z,569.00
2023-05-02T03:06:18.078Z,568.00
2023-05-02T03:07:17.982Z,574.00
2023-05-02T03:08:18.035Z,569.00
2023-05-02T03:09:18.082Z,577.00
2023-05-02T03:10:18.106Z,571.00
2023-05-02T03:11:18.178Z,562.00
2023-05-02T03:12:18.200Z,572.00
2023-05-02T03:13:18.250Z,571.00
2023-05-02T03:14:18.311Z,588.00
2023-05-02T03:15:18.373Z,568.00
2023-05-02T03:16:18.439Z,578.00
2023-05-02T03:17:18.423Z,587.00
2023-05-02T03:18:18.497Z,579.00
2023-05-02T03:19:18.505Z,569.00
2023-05-02T03:20:18.543Z,569.00
2023-05-02T03:21:18.595Z,588.00
2023-05-02T03:22:18.668Z,578.00
2023-05-02T03:23:18.681Z,596.00
2023-05-02T03:24:19.470Z,584.00
2023-05-02T03:25:18.756Z,572.00
2023-05-02T03:26:18.806Z,583.00
2023-05-02T03:27:18.842Z,578.00
2023-05-02T03:28:18.962Z,591.00
2023-05-02T03:29:18.926Z,584.00
2023-05-02T03:30:18.965Z,572.00
2023-05-02T03:31:19.005Z,575.00
2023-05-02T03:32:19.041Z,574.00
2023-05-02T03:33:19.075Z,571.00
2023-05-02T03:34:19.141Z,571.00
2023-05-02T03:35:19.176Z,580.00
2023-05-02T03:36:19.210Z,562.00
2023-05-02T03:37:19.273Z,571.00
2023-05-02T03:38:19.292Z,567.00
2023-05-02T03:39:19.343Z,578.00
2023-05-02T03:40:19.383Z,576.00
2023-05-02T03:41:19.440Z,578.00
2023-05-02T03:42:19.481Z,578.00
2023-05-02T03:43:19.503Z,567.00
2023-05-02T03:44:19.600Z,583.00
2023-05-02T03:45:19.596Z,587.00
2023-05-02T03:46:19.643Z,566.00
2023-05-02T03:47:19.803Z,570.00
2023-05-02T03:48:19.738Z,571.00
2023-05-02T03:49:19.948Z,585.00
2023-05-02T03:50:19.817Z,580.00
2023-05-02T03:51:19.866Z,580.00
2023-05-02T03:52:19.915Z,577.00
2023-05-02T03:53:19.945Z,584.00
2023-05-02T03:54:20.005Z,579.00
2023-05-02T03:55:20.041Z,566.00
2023-05-02T03:56:20.186Z,563.00
2023-05-02T03:57:20.116Z,553.00
2023-05-02T03:58:20.156Z,571.00
2023-05-02T03:59:20.212Z,587.00
2023-05-02T04:00:20.261Z,585.00
2023-05-02T04:01:20.307Z,587.00
2023-05-02T04:02:20.403Z,588.00
2023-05-02T04:03:20.499Z,591.00
2023-05-02T04:04:20.470Z,591.00
2023-05-02T04:05:20.454Z,592.00
2023-05-02T04:06:20.534Z,586.00
2023-05-02T04:07:20.551Z,586.00
2023-05-02T04:08:20.596Z,591.00
2023-05-02T04:09:20.643Z,599.00
2023-05-02T04:10:20.703Z,600.00
2023-05-02T04:11:20.734Z,597.00
2023-05-02T04:12:20.776Z,599.00
2023-05-02T04:13:20.819Z,601.00
2023-05-02T04:14:20.870Z,578.00
2023-05-02T04:15:20.920Z,585.00
2023-05-02T04:16:21.092Z,588.00
2023-05-02T04:17:21.020Z,595.00
2023-05-02T04:18:21.056Z,601.00
2023-05-02T04:19:21.104Z,596.00
2023-05-02T04:20:21.131Z,600.00
2023-05-02T04:21:21.167Z,608.00
2023-05-02T04:22:21.216Z,595.00
2023-05-02T04:23:21.261Z,600.00
2023-05-02T04:24:21.301Z,599.00
2023-05-02T04:25:21.345Z,583.00
2023-05-02T04:26:21.381Z,588.00
2023-05-02T04:27:21.450Z,589.00
2023-05-02T04:28:21.485Z,589.00
2023-05-02T04:29:21.529Z,599.00
2023-05-02T04:30:21.603Z,601.00
2023-05-02T04:31:21.686Z,597.00
2023-05-02T04:32:21.675Z,592.00
2023-05-02T04:33:21.718Z,603.00
2023-05-02T04:34:21.755Z,598.00
2023-05-02T04:35:21.807Z,594.00
2023-05-02T04:36:21.842Z,592.00
2023-05-02T04:37:21.918Z,595.00
2023-05-02T04:38:21.941Z,598.00
2023-05-02T04:39:21.972Z,594.00
2023-05-02T04:40:22.033Z,595.00
2023-05-02T04:41:22.061Z,584.00
2023-05-02T04:42:22.103Z,585.00
2023-05-02T04:43:24.467Z,602.00
2023-05-02T04:44:22.381Z,603.00
2023-05-02T04:45:22.407Z,589.00
2023-05-02T04:46:22.521Z,581.00
2023-05-02T04:47:22.562Z,595.00
2023-05-02T04:48:22.589Z,598.00
2023-05-02T04:49:22.624Z,585.00
2023-05-02T04:50:22.628Z,581.00
2023-05-02T04:51:22.682Z,581.00
2023-05-02T04:52:22.738Z,570.00
2023-05-02T04:53:22.801Z,576.00
2023-05-02T04:54:22.817Z,572.00
2023-05-02T04:55:22.871Z,575.00
2023-05-02T04:56:22.901Z,572.00
2023-05-02T04:57:23.397Z,584.00
2023-05-02T04:58:22.972Z,589.00
2023-05-02T04:59:23.027Z,587.00
2023-05-02T05:00:23.071Z,576.00
2023-05-02T05:01:23.147Z,562.00
2023-05-02T05:02:23.216Z,576.00
2023-05-02T05:03:23.309Z,557.00
2023-05-02T05:04:23.312Z,553.00
2023-05-02T05:05:23.300Z,564.00
2023-05-02T05:06:23.354Z,562.00
2023-05-02T05:07:23.367Z,561.00
2023-05-02T05:08:23.412Z,545.00
2023-05-02T05:09:23.474Z,542.00
2023-05-02T05:10:23.521Z,556.00
2023-05-02T05:11:23.552Z,552.00
2023-05-02T05:12:23.599Z,557.00
2023-05-02T05:13:23.682Z,581.00
2023-05-02T05:14:23.716Z,582.00
2023-05-02T05:15:23.761Z,556.00
2023-05-02T05:16:23.827Z,560.00
2023-05-02T05:17:23.918Z,568.00
2023-05-02T05:18:23.875Z,570.00
2023-05-02T05:19:23.940Z,568.00
2023-05-02T05:20:23.965Z,587.00
2023-05-02T05:21:24.041Z,585.00
2023-05-02T05:22:24.095Z,603.00
2023-05-02T05:23:24.113Z,592.00
2023-05-02T05:24:24.155Z,595.00
2023-05-02T05:25:24.188Z,589.00
2023-05-02T05:26:24.245Z,581.00
2023-05-02T05:27:24.292Z,586.00
2023-05-02T05:28:24.321Z,586.00
2023-05-02T05:29:24.370Z,588.00
2023-05-02T05:30:24.416Z,605.00
2023-05-02T05:31:24.531Z,603.00
2023-05-02T05:32:24.566Z,606.00
2023-05-02T05:33:24.810Z,615.00
2023-05-02T05:34:24.599Z,635.00
2023-05-02T05:35:24.642Z,645.00
2023-05-02T05:36:24.682Z,678.00
2023-05-02T05:37:24.726Z,724.00
2023-05-02T05:38:24.759Z,798.00
2023-05-02T05:39:24.795Z,846.00
2023-05-02T05:40:24.828Z,914.00
2023-05-02T05:41:24.848Z,906.00
2023-05-02T05:42:24.885Z,979.00
2023-05-02T05:43:24.918Z,1035.00
2023-05-02T05:44:24.940Z,1104.00
2023-05-02T05:45:24.974Z,1181.00
2023-05-02T05:46:25.041Z,1247.00
2023-05-02T05:47:25.102Z,1285.00
2023-05-02T05:48:25.052Z,1347.00
2023-05-02T05:49:25.104Z,1398.00
2023-05-02T05:50:25.055Z,1482.00
2023-05-02T05:51:25.047Z,1538.00
2023-05-02T05:52:25.090Z,1583.00
2023-05-02T05:53:25.055Z,1628.00
2023-05-02T05:54:25.057Z,1641.00
2023-05-02T05:55:25.079Z,1638.00
2023-05-02T05:56:25.067Z,1669.00
2023-05-02T05:57:25.076Z,1684.00
2023-05-02T05:58:25.064Z,1696.00
2023-05-02T05:59:25.060Z,1687.00
2023-05-02T06:00:25.068Z,1731.00
2023-05-02T06:01:25.070Z,1755.00
2023-05-02T06:02:25.140Z,1774.00
2023-05-02T06:03:25.173Z,1803.00
2023-05-02T06:04:25.139Z,1829.00
2023-05-02T06:05:25.155Z,1838.00
2023-05-02T06:06:25.211Z,1846.00
2023-05-02T06:07:25.194Z,1855.00
2023-05-02T06:08:25.220Z,1851.00
2023-05-02T06:09:25.236Z,1848.00
2023-05-02T06:10:25.260Z,1851.00
2023-05-02T06:11:25.266Z,1861.00
2023-05-02T06:12:25.615Z,1868.00
2023-05-02T06:13:25.332Z,1874.00
2023-05-02T06:14:25.375Z,1872.00
2023-05-02T06:15:25.429Z,1868.00
2023-05-02T06:16:25.536Z,1857.00
2023-05-02T06:17:25.649Z,1850.00
2023-05-02T06:18:25.577Z,1859.00
2023-05-02T06:19:25.655Z,1860.00
2023-05-02T06:20:25.708Z,1854.00
2023-05-02T06:21:25.750Z,1848.00
2023-05-02T06:22:25.847Z,1823.00
2023-05-02T06:23:25.878Z,1403.00
2023-05-02T06:24:25.918Z,1193.00
2023-05-02T06:25:25.961Z,1098.00
2023-05-02T06:26:25.980Z,1035.00
2023-05-02T06:27:25.988Z,1098.00
2023-05-02T06:28:25.977Z,964.00
2023-05-02T06:29:25.977Z,964.00
2023-05-02T06:30:25.999Z,944.00
2023-05-02T06:31:26.006Z,915.00
2023-05-02T06:32:26.138Z,798.00
2023-05-02T06:33:26.048Z,632.00
2023-05-02T06:34:26.112Z,591.00
2023-05-02T06:35:26.602Z,582.00
2023-05-02T06:36:26.143Z,566.00
2023-05-02T06:37:26.182Z,620.00
2023-05-02T06:38:26.166Z,1542.00
2023-05-02T06:39:26.145Z,2214.00
2023-05-02T06:40:26.617Z,1682.00
2023-05-02T06:41:26.165Z,1545.00
2023-05-02T06:42:26.166Z,1487.00
2023-05-02T06:43:26.190Z,1501.00
2023-05-02T06:44:26.175Z,1413.00
2023-05-02T06:45:26.174Z,1356.00
2023-05-02T06:46:26.342Z,1321.00
2023-05-02T06:47:26.685Z,1271.00
2023-05-02T06:48:26.269Z,1285.00
2023-05-02T06:49:26.326Z,1280.00
2023-05-02T06:50:26.437Z,1218.00
2023-05-02T06:51:26.449Z,1251.00
2023-05-02T06:52:26.527Z,1194.00
2023-05-02T06:53:26.615Z,1182.00
2023-05-02T06:54:26.626Z,1189.00
2023-05-02T06:55:26.696Z,1227.00
2023-05-02T06:56:26.754Z,1201.00
2023-05-02T06:57:26.806Z,1205.00
2023-05-02T06:58:26.871Z,1235.00
2023-05-02T06:59:26.933Z,1154.00
2023-05-02T07:00:27.151Z,1261.00
2023-05-02T07:01:27.062Z,1210.00
2023-05-02T07:02:27.189Z,1202.00
2023-05-02T07:03:27.638Z,1207.00
2023-05-02T07:04:28.133Z,1223.00
2023-05-02T07:05:27.253Z,1292.00
2023-05-02T07:06:27.342Z,1325.00
2023-05-02T07:07:27.373Z,1318.00
2023-05-02T07:08:27.427Z,1306.00
2023-05-02T07:09:27.483Z,1341.00
2023-05-02T07:10:27.521Z,1422.00
2023-05-02T07:11:27.560Z,1407.00
2023-05-02T07:12:27.620Z,1420.00
2023-05-02T07:13:27.684Z,1376.00
2023-05-02T07:14:28.129Z,1357.00
2023-05-02T07:15:28.135Z,1349.00
2023-05-02T07:16:27.821Z,1310.00
2023-05-02T07:17:27.858Z,1292.00
2023-05-02T07:18:27.887Z,1239.00
2023-05-02T07:19:27.910Z,1222.00
2023-05-02T07:20:27.955Z,1145.00
2023-05-02T07:21:27.998Z,1018.00
2023-05-02T07:22:28.147Z,1035.00
2023-05-02T07:23:28.149Z,921.00
2023-05-02T07:24:28.109Z,886.00
2023-05-02T07:25:28.635Z,924.00
2023-05-02T07:26:28.187Z,851.00
2023-05-02T07:27:28.239Z,669.00
2023-05-02T07:28:28.636Z,630.00
2023-05-02T07:29:28.309Z,576.00
2023-05-02T07:30:28.637Z,586.00
2023-05-02T07:31:28.345Z,628.00
2023-05-02T07:32:28.455Z,664.00
2023-05-02T07:33:28.380Z,764.00
2023-05-02T07:34:28.350Z,913.00
2023-05-02T07:35:28.343Z,1004.00
2023-05-02T07:36:28.383Z,1070.00
2023-05-02T07:37:28.448Z,1194.00
2023-05-02T07:38:28.537Z,1302.00
2023-05-02T07:39:28.577Z,1356.00
2023-05-02T07:40:28.585Z,1427.00
2023-05-02T07:41:28.637Z,1452.00
2023-05-02T07:42:28.660Z,1505.00
2023-05-02T07:43:28.692Z,1532.00
2023-05-02T07:44:28.701Z,1562.00
2023-05-02T07:45:28.702Z,1586.00
2023-05-02T07:46:28.788Z,1595.00
2023-05-02T07:47:28.797Z,1610.00
2023-05-02T07:48:28.763Z,1645.00
2023-05-02T07:49:28.772Z,1669.00
2023-05-02T07:50:28.791Z,1681.00
2023-05-02T07:51:28.779Z,1684.00
2023-05-02T07:52:28.811Z,1692.00
2023-05-02T07:53:28.787Z,1701.00
2023-05-02T07:54:28.793Z,1709.00
2023-05-02T07:55:28.784Z,1711.00
2023-05-02T07:56:28.779Z,1718.00
2023-05-02T07:57:28.822Z,1729.00
2023-05-02T07:58:28.807Z,1754.00
2023-05-02T07:59:28.775Z,1761.00
2023-05-02T08:00:28.786Z,1771.00
2023-05-02T08:01:28.772Z,1739.00
2023-05-02T08:02:28.870Z,1741.00
2023-05-02T08:03:29.245Z,1743.00
2023-05-02T08:04:28.915Z,1761.00
2023-05-02T08:05:28.878Z,1717.00
2023-05-02T08:06:28.970Z,1767.00
2023-05-02T08:07:28.927Z,1864.00
2023-05-02T08:08:28.991Z,1905.00
2023-05-02T08:09:29.055Z,1921.00
2023-05-02T08:10:29.151Z,1952.00
2023-05-02T08:11:29.140Z,1971.00
2023-05-02T08:12:29.220Z,1981.00
2023-05-02T08:13:29.249Z,1986.00
2023-05-02T08:14:29.315Z,1986.00
2023-05-02T08:15:29.669Z,1988.00
2023-05-02T08:16:29.976Z,1931.00
2023-05-02T08:17:29.504Z,1901.00
2023-05-02T08:18:29.533Z,1891.00
2023-05-02T08:19:29.575Z,1871.00
2023-05-02T08:20:29.657Z,1836.00
2023-05-02T08:21:29.688Z,1804.00
2023-05-02T08:22:29.760Z,1823.00
2023-05-02T08:23:29.820Z,1889.00
2023-05-02T08:24:29.869Z,1923.00
2023-05-02T08:25:29.911Z,2071.00
2023-05-02T08:26:29.996Z,2154.00
2023-05-02T08:27:30.037Z,2207.00
2023-05-02T08:28:30.081Z,2232.00
2023-05-02T08:29:30.121Z,2101.00
2023-05-02T08:30:30.190Z,2098.00
2023-05-02T08:31:30.241Z,2008.00
2023-05-02T08:32:30.330Z,2080.00
2023-05-02T08:33:30.324Z,2037.00
2023-05-02T08:34:30.361Z,1979.00
2023-05-02T08:35:30.407Z,2013.00
2023-05-02T08:36:30.441Z,2018.00
2023-05-02T08:37:30.487Z,2003.00
2023-05-02T08:38:30.670Z,2013.00
2023-05-02T08:39:30.572Z,1936.00
2023-05-02T08:40:41.446Z,1807.00
2023-05-02T08:41:31.601Z,1811.00
2023-05-02T08:42:30.603Z,1689.00
2023-05-02T08:43:30.602Z,1619.00
2023-05-02T08:44:30.594Z,1482.00
2023-05-02T08:45:30.592Z,1333.00
2023-05-02T08:46:30.583Z,1162.00
2023-05-02T08:47:30.599Z,1057.00
2023-05-02T08:48:30.653Z,958.00
2023-05-02T08:49:30.562Z,909.00
2023-05-02T08:50:30.671Z,791.00
2023-05-02T08:51:30.655Z,654.00
2023-05-02T08:52:30.716Z,620.00
2023-05-02T08:53:30.785Z,625.00
2023-05-02T08:54:30.853Z,616.00
2023-05-02T08:55:30.913Z,635.00
2023-05-02T08:56:30.955Z,657.00
2023-05-02T08:57:31.021Z,667.00
2023-05-02T08:58:31.081Z,713.00
2023-05-02T08:59:31.127Z,771.00
2023-05-02T09:00:31.171Z,860.00
2023-05-02T09:01:31.257Z,916.00
2023-05-02T09:02:31.278Z,959.00
2023-05-02T09:03:31.291Z,990.00
2023-05-02T09:04:31.376Z,1051.00
2023-05-02T09:05:31.342Z,1064.00
2023-05-02T09:06:31.381Z,1118.00
2023-05-02T09:07:31.410Z,1126.00
2023-05-02T09:08:31.422Z,1174.00
2023-05-02T09:09:31.449Z,1210.00
2023-05-02T09:10:31.483Z,1231.00
2023-05-02T09:11:31.656Z,1219.00
2023-05-02T09:12:31.587Z,1233.00
2023-05-02T09:13:31.971Z,1259.00
2023-05-02T09:14:31.813Z,1245.00
2023-05-02T09:15:31.658Z,1256.00
2023-05-02T09:16:31.735Z,1219.00
2023-05-02T09:17:31.759Z,1215.00
2023-05-02T09:18:31.765Z,1236.00
2023-05-02T09:19:31.778Z,1234.00
2023-05-02T09:20:31.847Z,1200.00
2023-05-02T09:21:31.857Z,1205.00
2023-05-02T09:22:31.880Z,1185.00
2023-05-02T09:23:32.185Z,1148.00
2023-05-02T09:24:31.913Z,1109.00
2023-05-02T09:25:31.965Z,1108.00
2023-05-02T09:26:32.126Z,1004.00
2023-05-02T09:27:31.998Z,953.00
2023-05-02T09:28:32.189Z,996.00
2023-05-02T09:29:32.120Z,1026.00
2023-05-02T09:30:32.692Z,1058.00
2023-05-02T09:32:33.319Z,1105.00
2023-05-02T09:33:32.703Z,997.00
2023-05-02T09:34:32.220Z,707.00
2023-05-02T09:35:32.237Z,536.00
2023-05-02T09:36:32.223Z,501.00
2023-05-02T09:37:32.214Z,520.00
2023-05-02T09:38:32.200Z,538.00
2023-05-02T09:39:32.280Z,564.00
2023-05-02T09:40:32.256Z,600.00
2023-05-02T09:41:32.301Z,595.00
2023-05-02T09:42:32.374Z,556.00
2023-05-02T09:43:32.421Z,615.00
2023-05-02T09:44:32.911Z,659.00
2023-05-02T09:45:32.569Z,677.00
2023-05-02T09:46:32.696Z,739.00
2023-05-02T09:47:32.702Z,752.00
2023-05-02T09:48:32.729Z,732.00
2023-05-02T09:49:32.759Z,620.00
2023-05-02T09:50:33.064Z,654.00
2023-05-02T09:51:32.865Z,717.00
2023-05-02T09:52:32.929Z,741.00
2023-05-02T09:53:32.960Z,566.00
2023-05-02T09:54:33.035Z,596.00
2023-05-02T09:55:33.076Z,653.00
2023-05-02T09:56:33.115Z,645.00
2023-05-02T09:57:33.178Z,600.00
2023-05-02T09:58:33.228Z,653.00
2023-05-02T09:59:33.278Z,683.00
2023-05-02T10:00:33.345Z,615.00
2023-05-02T10:01:33.398Z,579.00
2023-05-02T10:02:33.461Z,635.00
2023-05-02T10:03:33.570Z,662.00
2023-05-02T10:04:33.602Z,782.00
2023-05-02T10:05:33.696Z,756.00
2023-05-02T10:06:33.672Z,658.00
2023-05-02T10:07:33.667Z,639.00
2023-05-02T10:08:34.190Z,574.00
2023-05-02T10:09:33.762Z,481.00
2023-05-02T10:10:34.191Z,500.00
2023-05-02T10:11:33.866Z,488.00
2023-05-02T10:12:33.913Z,541.00
2023-05-02T10:13:33.985Z,587.00
2023-05-02T10:14:34.023Z,619.00
2023-05-02T10:15:34.181Z,623.00
2023-05-02T10:16:34.197Z,648.00
2023-05-02T10:17:34.264Z,578.00
2023-05-02T10:18:34.272Z,533.00
2023-05-02T10:19:34.301Z,524.00
2023-05-02T10:20:34.388Z,480.00
2023-05-02T10:21:34.423Z,469.00
2023-05-02T10:22:34.498Z,400.00
2023-05-02T10:23:34.710Z,400.00
2023-05-02T10:24:34.496Z,400.00
2023-05-02T10:25:34.534Z,400.00
2023-05-02T10:26:34.580Z,400.00
2023-05-02T10:27:34.636Z,400.00
2023-05-02T10:28:34.710Z,400.00
2023-05-02T10:29:34.727Z,400.00
2023-05-02T10:30:35.218Z,400.00
2023-05-02T10:31:34.768Z,400.00
2023-05-02T10:32:34.919Z,400.00
2023-05-02T10:33:34.864Z,400.00
2023-05-02T10:34:34.930Z,400.00
2023-05-02T10:35:34.971Z,400.00
2023-05-02T10:36:34.928Z,400.00
2023-05-02T10:37:34.936Z,400.00
2023-05-02T10:38:34.939Z,400.00
2023-05-02T10:39:34.918Z,400.00
2023-05-02T10:40:34.958Z,400.00
2023-05-02T10:41:34.953Z,400.00
2023-05-02T10:42:34.977Z,400.00
2023-05-02T10:43:35.029Z,400.00
2023-05-02T10:44:35.049Z,400.00
2023-05-02T10:45:35.050Z,400.00
2023-05-02T10:46:35.120Z,400.00
2023-05-02T10:47:35.143Z,408.00
2023-05-02T10:48:35.173Z,459.00
2023-05-02T10:49:35.182Z,504.00
2023-05-02T10:50:35.270Z,507.00
2023-05-02T10:51:35.295Z,533.00
2023-05-02T10:52:35.367Z,505.00
2023-05-02T10:53:35.390Z,509.00
2023-05-02T10:54:35.433Z,513.00
2023-05-02T10:55:35.535Z,509.00
2023-05-02T10:56:35.572Z,550.00
2023-05-02T10:57:35.606Z,552.00
2023-05-02T10:58:35.672Z,560.00
2023-05-02T10:59:35.741Z,584.00
2023-05-02T11:00:35.847Z,594.00
2023-05-02T11:01:35.839Z,568.00
2023-05-02T11:02:36.039Z,571.00
2023-05-02T11:03:36.243Z,591.00
2023-05-02T11:04:36.007Z,681.00
2023-05-02T11:05:36.078Z,1062.00
2023-05-02T11:06:36.176Z,1230.00
2023-05-02T11:07:36.132Z,1469.00
2023-05-02T11:08:36.163Z,1608.00
2023-05-02T11:09:36.209Z,1841.00
2023-05-02T11:10:36.209Z,1900.00
2023-05-02T11:11:36.198Z,1992.00
2023-05-02T11:12:36.278Z,2113.00
2023-05-02T11:13:36.313Z,2369.00
2023-05-02T11:14:36.371Z,2484.00
2023-05-02T11:15:36.792Z,2503.00
2023-05-02T11:16:36.489Z,2579.00
2023-05-02T11:17:36.500Z,2601.00
2023-05-02T11:18:36.509Z,2635.00
2023-05-02T11:19:36.544Z,2725.00
2023-05-02T11:20:36.578Z,2790.00
2023-05-02T11:21:36.560Z,2871.00
2023-05-02T11:22:36.597Z,2968.00
2023-05-02T11:23:36.584Z,2987.00
2023-05-02T11:24:36.610Z,2995.00
2023-05-02T11:25:36.620Z,3154.00
2023-05-02T11:26:36.587Z,3267.00
2023-05-02T11:27:36.623Z,3337.00
2023-05-02T11:28:36.676Z,3478.00
2023-05-02T11:29:36.639Z,3366.00
2023-05-02T11:30:36.661Z,3348.00
2023-05-02T11:31:36.728Z,3307.00
2023-05-02T11:32:36.796Z,3442.00
2023-05-02T11:33:36.780Z,3531.00
2023-05-02T11:34:36.850Z,3590.00
2023-05-02T11:35:36.925Z,3790.00
2023-05-02T11:36:36.965Z,3982.00
2023-05-02T11:37:37.069Z,4054.00
2023-05-02T11:38:37.103Z,4151.00
2023-05-02T11:39:37.144Z,4206.00
2023-05-02T11:40:37.211Z,4197.00
2023-05-02T11:41:37.255Z,4208.00
2023-05-02T11:42:37.313Z,4159.00
2023-05-02T11:43:37.360Z,4233.00
2023-05-02T11:44:37.427Z,4271.00
2023-05-02T11:45:37.481Z,4325.00
2023-05-02T11:46:37.607Z,4295.00
2023-05-02T11:47:37.576Z,4239.00
2023-05-02T11:48:37.612Z,4255.00
2023-05-02T11:49:37.645Z,4234.00
2023-05-02T11:50:38.737Z,4262.00
2023-05-02T11:51:37.746Z,4277.00
2023-05-02T11:52:37.744Z,4265.00
2023-05-02T11:53:37.783Z,4192.00
2023-05-02T11:54:37.831Z,4271.00
2023-05-02T11:55:37.885Z,4229.00
2023-05-02T11:56:37.887Z,4248.00
2023-05-02T11:57:37.946Z,4304.00
2023-05-02T11:58:37.961Z,4306.00
2023-05-02T11:59:38.004Z,4215.00
2023-05-02T12:00:38.062Z,4194.00
2023-05-02T12:01:38.069Z,4194.00
2023-05-02T12:02:38.238Z,4064.00
2023-05-02T12:03:38.268Z,4182.00
2023-05-02T12:04:38.171Z,3602.00
2023-05-02T12:05:38.228Z,2867.00
2023-05-02T12:06:38.238Z,2531.00
2023-05-02T12:07:38.316Z,2322.00
2023-05-02T12:08:38.765Z,2172.00
2023-05-02T12:09:38.375Z,1887.00
2023-05-02T12:10:38.444Z,1888.00
2023-05-02T12:11:38.564Z,1784.00
2023-05-02T12:12:38.547Z,1953.00
2023-05-02T12:13:38.607Z,2064.00
2023-05-02T12:14:38.651Z,2194.00
2023-05-02T12:15:38.739Z,2321.00
2023-05-02T12:16:38.835Z,2591.00
2023-05-02T12:17:38.873Z,2870.00
2023-05-02T12:18:38.881Z,3374.00
2023-05-02T12:19:38.950Z,3569.00
2023-05-02T12:20:39.027Z,3694.00
2023-05-02T12:21:39.059Z,3670.00